Time;durP1;ratioP1;P1;durP2;ratioP2;P2;SDS_P1;SDS_P2;PMS_P1;PMS_P2;Temp;Humidity;BMP_temperature;BMP_pressure;BME280_temperature;BME280_humidity;BME280_pressure;Samples;Min_cycle;Max_cycle;Signal;HPM_P1;HPM_P2
2022/05/17 00:00:29;;;;;;;21.33;10.85;;;14.90;99.90;;;;;;2218042;64;20256;-75
2022/05/17 00:03:07;;;;;;;21.88;11.70;;;14.80;99.90;;;;;;2223076;64;20179;-76
2022/05/17 00:05:49;;;;;;;19.33;10.35;;;14.70;99.90;;;;;;2225855;64;20200;-76
2022/05/17 00:08:27;;;;;;;21.00;11.00;;;14.70;99.90;;;;;;2224812;64;20192;-75
2022/05/17 00:11:10;;;;;;;18.90;9.65;;;14.50;99.90;;;;;;2221320;64;20194;-76
2022/05/17 00:13:50;;;;;;;15.05;9.48;;;14.60;99.90;;;;;;2226267;64;20182;-77
2022/05/17 00:16:29;;;;;;;18.83;9.45;;;14.60;99.90;;;;;;2226953;64;20243;-76
2022/05/17 00:19:06;;;;;;;15.25;8.68;;;14.50;99.90;;;;;;2224139;64;20300;-75
2022/05/17 00:21:45;;;;;;;15.65;8.82;;;14.50;99.90;;;;;;2231257;64;20227;-75
2022/05/17 00:24:27;;;;;;;18.83;8.32;;;14.50;99.90;;;;;;2222572;64;20207;-76
2022/05/17 00:27:05;;;;;;;16.77;9.35;;;14.50;99.90;;;;;;2229658;64;20650;-75
2022/05/17 00:29:41;;;;;;;19.98;7.97;;;14.50;99.90;;;;;;2229122;64;20674;-75
2022/05/17 00:32:18;;;;;;;16.67;8.02;;;14.50;99.90;;;;;;2224269;64;20179;-76
2022/05/17 00:34:58;;;;;;;20.75;9.02;;;14.40;99.90;;;;;;2224333;64;20163;-76
2022/05/17 00:37:35;;;;;;;19.92;8.57;;;14.40;99.90;;;;;;2229159;64;20228;-75
2022/05/17 00:40:14;;;;;;;18.50;8.65;;;14.40;99.90;;;;;;2223179;64;20196;-75
2022/05/17 00:42:54;;;;;;;16.48;9.50;;;14.20;99.90;;;;;;2223543;64;20207;-75
2022/05/17 00:45:35;;;;;;;19.38;8.85;;;14.40;99.90;;;;;;2224168;64;20282;-76
2022/05/17 00:48:21;;;;;;;16.02;8.38;;;14.30;99.90;;;;;;2227635;64;20247;-77
2022/05/17 00:50:59;;;;;;;24.45;8.52;;;14.30;99.90;;;;;;2225986;64;20197;-76
2022/05/17 00:53:38;;;;;;;21.70;9.75;;;14.30;99.90;;;;;;2224461;64;20307;-76
2022/05/17 00:56:19;;;;;;;16.70;8.60;;;14.30;99.90;;;;;;2226218;64;20282;-75
2022/05/17 00:59:04;;;;;;;23.70;8.88;;;14.20;99.90;;;;;;2223868;64;20260;-76
2022/05/17 01:01:44;;;;;;;22.27;9.40;;;14.20;99.90;;;;;;2225226;64;20184;-76
2022/05/17 01:04:24;;;;;;;14.82;8.88;;;14.20;99.90;;;;;;2223138;64;20320;-76
2022/05/17 01:07:22;;;;;;;20.35;9.23;;;14.10;99.90;;;;;;2227383;64;20601;-75
2022/05/17 01:10:01;;;;;;;24.92;10.68;;;14.10;99.90;;;;;;2223957;64;20591;-76
2022/05/17 01:12:40;;;;;;;22.65;8.95;;;14.10;99.90;;;;;;2224521;64;20171;-76
2022/05/17 01:15:21;;;;;;;21.35;10.20;;;14.10;99.90;;;;;;2225060;64;20223;-76
2022/05/17 01:17:59;;;;;;;21.30;10.35;;;14.00;99.90;;;;;;2226902;64;20378;-75
2022/05/17 01:20:39;;;;;;;19.50;10.15;;;14.10;99.90;;;;;;2228743;64;20184;-76
2022/05/17 01:23:17;;;;;;;21.75;10.65;;;14.00;99.90;;;;;;2230943;64;20188;-75
2022/05/17 01:25:59;;;;;;;20.08;10.70;;;14.00;99.90;;;;;;2228621;64;20239;-76
2022/05/17 01:28:38;;;;;;;20.98;11.10;;;14.10;99.90;;;;;;2221308;64;20179;-75
2022/05/17 01:31:19;;;;;;;21.10;11.32;;;14.00;99.90;;;;;;2223505;64;20230;-76
2022/05/17 01:34:00;;;;;;;20.63;11.75;;;13.90;99.90;;;;;;2224190;64;20184;-76
2022/05/17 01:36:42;;;;;;;24.70;11.45;;;14.00;99.90;;;;;;2224612;64;20156;-76
2022/05/17 01:39:21;;;;;;;22.85;11.38;;;13.90;99.90;;;;;;2221097;64;20321;-76
2022/05/17 01:41:57;;;;;;;18.25;10.90;;;13.90;99.90;;;;;;2222092;64;20259;-76
2022/05/17 01:44:36;;;;;;;25.25;11.43;;;13.90;99.90;;;;;;2223233;64;20246;-75
2022/05/17 01:47:17;;;;;;;21.30;10.82;;;13.80;99.90;;;;;;2224348;64;20258;-76
2022/05/17 01:49:58;;;;;;;22.35;11.45;;;13.80;99.90;;;;;;2221194;64;20802;-75
2022/05/17 01:52:38;;;;;;;22.70;10.82;;;13.80;99.90;;;;;;2225329;64;20638;-75
2022/05/17 01:55:18;;;;;;;21.83;10.60;;;13.80;99.90;;;;;;2224846;64;20212;-76
2022/05/17 01:57:57;;;;;;;21.38;10.15;;;13.80;99.90;;;;;;2224241;64;20335;-76
2022/05/17 02:00:41;;;;;;;20.70;11.23;;;13.80;99.90;;;;;;2223502;64;20163;-76
2022/05/17 02:03:21;;;;;;;20.77;10.00;;;13.70;99.90;;;;;;2218642;64;20344;-75
2022/05/17 02:05:59;;;;;;;22.80;10.55;;;13.70;99.90;;;;;;2225023;64;20378;-75
2022/05/17 02:08:39;;;;;;;20.02;10.85;;;13.60;99.90;;;;;;2224681;64;20389;-76
2022/05/17 02:11:20;;;;;;;20.15;10.95;;;13.60;99.90;;;;;;2224397;64;20183;-76
2022/05/17 02:13:59;;;;;;;23.25;10.95;;;13.60;99.90;;;;;;2229287;64;20163;-76
2022/05/17 02:16:38;;;;;;;24.40;10.52;;;13.60;99.90;;;;;;2230157;64;20205;-75
2022/05/17 02:19:19;;;;;;;24.30;11.70;;;13.60;99.90;;;;;;2228512;64;20224;-76
2022/05/17 02:21:56;;;;;;;20.95;10.52;;;13.60;99.90;;;;;;2228329;64;20166;-76
2022/05/17 02:24:34;;;;;;;23.23;10.45;;;13.60;99.90;;;;;;2224924;64;20238;-76
2022/05/17 02:27:13;;;;;;;24.73;10.88;;;13.50;99.90;;;;;;2218644;64;20230;-76
2022/05/17 02:29:56;;;;;;;26.38;10.70;;;13.60;99.90;;;;;;2230945;64;20691;-75
2022/05/17 02:32:35;;;;;;;22.45;10.18;;;13.50;99.90;;;;;;2229319;64;20180;-75
2022/05/17 02:35:15;;;;;;;20.58;9.75;;;13.50;99.90;;;;;;2223849;64;20702;-76
2022/05/17 02:37:57;;;;;;;23.80;10.55;;;13.40;99.90;;;;;;2223862;64;20235;-76
2022/05/17 02:51:41;;;;;;;19.55;10.05;;;13.40;99.90;;;;;;2229753;64;20812;-76
2022/05/17 02:54:20;;;;;;;17.33;10.10;;;13.30;99.90;;;;;;2223541;64;20324;-76
2022/05/17 02:56:57;;;;;;;22.23;10.82;;;13.30;99.90;;;;;;2223831;64;20183;-76
2022/05/17 02:59:36;;;;;;;21.85;12.63;;;13.30;99.90;;;;;;2220283;64;20211;-77
2022/05/17 03:02:19;;;;;;;25.23;11.07;;;13.30;99.90;;;;;;2228664;64;20221;-76
2022/05/17 03:05:03;;;;;;;17.15;10.38;;;13.30;99.90;;;;;;2226124;64;20304;-76
2022/05/17 03:07:43;;;;;;;25.05;10.73;;;13.20;99.90;;;;;;2225193;64;20189;-76
2022/05/17 03:10:20;;;;;;;20.65;10.57;;;13.20;99.90;;;;;;2224483;64;20284;-76
2022/05/17 03:12:58;;;;;;;20.73;10.40;;;13.20;99.90;;;;;;2227578;64;20185;-76
2022/05/17 03:15:38;;;;;;;15.57;10.25;;;13.20;99.90;;;;;;2224683;64;20178;-76
2022/05/17 03:37:53;;;;;;;20.33;9.60;;;13.00;99.90;;;;;;2222061;64;20276;-76
2022/05/17 03:40:32;;;;;;;;;;;12.90;99.90;;;;;;2226195;64;20847;-75
2022/05/17 03:43:09;;;;;;;17.35;9.48;;;12.90;99.90;;;;;;2221897;64;20044;-76
2022/05/17 03:45:47;;;;;;;21.70;10.00;;;12.90;99.90;;;;;;2222821;64;20193;-75
2022/05/17 03:48:28;;;;;;;20.30;9.98;;;12.90;99.90;;;;;;2226615;64;20690;-76
2022/05/17 03:51:16;;;;;;;19.80;10.05;;;12.90;99.90;;;;;;2231714;64;20172;-75
2022/05/17 03:53:53;;;;;;;19.05;9.77;;;12.80;99.90;;;;;;2224069;64;20307;-76
2022/05/17 03:56:30;;;;;;;19.50;10.02;;;12.90;99.90;;;;;;2217635;64;20250;-76
2022/05/17 03:59:07;;;;;;;16.15;10.27;;;13.00;99.90;;;;;;2220413;64;20183;-76
2022/05/17 04:01:44;;;;;;;18.85;9.60;;;13.00;99.90;;;;;;2219494;64;20214;-75
2022/05/17 04:04:22;;;;;;;21.48;10.73;;;12.90;99.90;;;;;;2218802;64;20320;-77
2022/05/17 04:07:01;;;;;;;20.83;10.02;;;13.00;99.90;;;;;;2220750;64;20184;-75
2022/05/17 04:09:39;;;;;;;17.15;9.00;;;13.00;99.90;;;;;;2222634;64;20660;-76
2022/05/17 04:12:19;;;;;;;17.30;9.43;;;13.10;99.90;;;;;;2220798;64;20549;-75
2022/05/17 04:14:56;;;;;;;20.80;8.82;;;13.10;99.90;;;;;;2216880;64;20199;-75
2022/05/17 04:17:32;;;;;;;21.73;8.80;;;13.10;99.90;;;;;;2219047;64;20689;-76
2022/05/17 04:20:11;;;;;;;13.90;8.63;;;13.20;99.90;;;;;;2221515;64;20621;-76
2022/05/17 04:22:54;;;;;;;14.63;7.95;;;13.30;99.90;;;;;;2222865;64;20294;-76
2022/05/17 04:25:33;;;;;;;20.83;9.00;;;13.40;99.90;;;;;;2219223;64;20189;-76
2022/05/17 04:28:10;;;;;;;18.50;9.10;;;13.50;99.90;;;;;;2216302;64;20164;-75
2022/05/17 04:30:49;;;;;;;17.40;7.88;;;13.60;99.90;;;;;;2217539;64;20660;-76
2022/05/17 04:33:28;;;;;;;17.27;7.53;;;13.70;99.90;;;;;;2221633;64;20175;-75
2022/05/17 04:36:12;;;;;;;14.75;7.60;;;13.80;99.90;;;;;;2219407;64;20226;-76
2022/05/17 04:38:51;;;;;;;16.52;7.22;;;13.80;99.90;;;;;;2224140;64;20224;-75
2022/05/17 04:41:31;;;;;;;16.77;8.20;;;14.00;99.90;;;;;;2222804;64;20231;-76
2022/05/17 04:44:12;;;;;;;18.30;7.35;;;14.10;99.90;;;;;;2213273;64;20337;-75
2022/05/17 04:46:53;;;;;;;13.65;7.22;;;14.30;99.90;;;;;;2216724;64;20189;-76
2022/05/17 04:49:33;;;;;;;18.35;8.32;;;14.30;99.90;;;;;;2221397;64;20196;-76
2022/05/17 04:52:15;;;;;;;14.07;6.57;;;14.50;99.90;;;;;;2220796;64;20208;-77
2022/05/17 04:54:56;;;;;;;18.77;7.25;;;14.50;99.90;;;;;;2226027;64;20332;-76
2022/05/17 04:57:34;;;;;;;14.20;7.10;;;14.90;99.90;;;;;;2230604;64;20175;-75
2022/05/17 05:00:16;;;;;;;13.95;7.18;;;14.50;99.90;;;;;;2223445;64;20179;-76
2022/05/17 05:02:53;;;;;;;13.77;6.78;;;14.60;99.90;;;;;;2223616;64;20335;-77
2022/05/17 05:05:30;;;;;;;16.67;7.25;;;14.90;99.90;;;;;;2219835;64;20641;-76
2022/05/17 05:08:09;;;;;;;12.48;7.22;;;14.70;99.90;;;;;;2228323;64;20204;-78
2022/05/17 05:10:58;;;;;;;13.02;5.97;;;14.70;99.90;;;;;;2213564;64;20356;-75
2022/05/17 05:13:35;;;;;;;14.52;7.00;;;14.70;99.90;;;;;;2224017;64;20240;-77
2022/05/17 05:16:20;;;;;;;11.13;6.97;;;14.70;99.90;;;;;;2223653;64;20252;-77
2022/05/17 05:18:58;;;;;;;16.90;7.15;;;14.70;99.90;;;;;;2220451;64;20175;-77
2022/05/17 05:21:35;;;;;;;15.32;7.10;;;15.10;99.90;;;;;;2223275;64;20192;-76
2022/05/17 05:24:40;;;;;;;11.85;6.10;;;14.70;99.90;;;;;;2227437;64;20405;-77
2022/05/17 05:27:22;;;;;;;20.40;7.70;;;14.70;99.90;;;;;;2220089;64;20175;-76
2022/05/17 05:30:07;;;;;;;15.32;7.07;;;14.70;99.90;;;;;;2221978;64;20347;-76
2022/05/17 05:32:46;;;;;;;15.35;7.32;;;14.80;99.90;;;;;;2221906;64;20257;-76
2022/05/17 05:35:27;;;;;;;16.65;7.80;;;14.80;99.90;;;;;;2221247;64;21378;-76
2022/05/17 05:38:06;;;;;;;16.08;6.97;;;14.80;99.90;;;;;;2222283;64;20555;-76
2022/05/17 05:40:43;;;;;;;14.13;7.63;;;14.80;99.90;;;;;;2222880;64;20197;-76
2022/05/17 05:43:19;;;;;;;17.10;7.53;;;14.90;99.90;;;;;;2223392;64;20264;-78
2022/05/17 05:45:58;;;;;;;15.43;7.65;;;14.90;99.90;;;;;;2217952;64;20213;-76
2022/05/17 05:48:39;;;;;;;15.25;7.55;;;15.00;99.90;;;;;;2222992;64;20238;-78
2022/05/17 05:51:19;;;;;;;15.05;6.65;;;15.10;99.90;;;;;;2224935;64;20715;-76
2022/05/17 05:53:55;;;;;;;10.00;6.93;;;15.00;99.90;;;;;;2220388;64;20168;-80
2022/05/17 05:56:32;;;;;;;14.27;7.28;;;15.20;99.90;;;;;;2220606;64;20273;-76
2022/05/17 05:59:09;;;;;;;16.13;7.40;;;15.30;99.90;;;;;;2221272;64;20290;-79
2022/05/17 06:01:47;;;;;;;13.40;7.20;;;15.30;99.90;;;;;;2220873;64;20187;-77
2022/05/17 06:04:27;;;;;;;13.68;7.13;;;15.30;99.90;;;;;;2219782;64;20235;-76
2022/05/17 06:07:06;;;;;;;12.98;6.45;;;15.40;99.90;;;;;;2222146;64;20633;-78
2022/05/17 06:09:48;;;;;;;17.90;7.90;;;15.40;99.90;;;;;;2221712;64;20235;-77
2022/05/17 06:12:32;;;;;;;21.30;8.18;;;15.30;99.90;;;;;;2220999;64;20363;-77
2022/05/17 06:15:12;;;;;;;13.45;6.65;;;15.50;99.90;;;;;;2220991;64;20325;-80
2022/05/17 06:18:00;;;;;;;15.13;7.60;;;15.50;99.90;;;;;;2220487;64;20238;-79
2022/05/17 06:31:44;;;;;;;13.32;6.80;;;15.80;99.90;;;;;;2220150;64;20247;-75
2022/05/17 07:05:10;;;;;;;14.57;5.47;;;16.40;99.90;;;;;;2222438;64;20548;-78
2022/05/17 07:07:47;;;;;;;12.55;5.78;;;16.50;99.90;;;;;;2225445;64;20279;-77
2022/05/17 07:13:17;;;;;;;8.75;5.32;;;16.70;99.90;;;;;;2221326;64;20340;-80
2022/05/17 07:16:04;;;;;;;11.90;5.70;;;16.70;99.90;;;;;;2223829;64;20563;-83
2022/05/17 07:18:44;;;;;;;9.82;5.35;;;16.80;99.90;;;;;;2221497;64;20310;-77
2022/05/17 07:21:21;;;;;;;11.55;5.40;;;16.80;99.90;;;;;;2220519;64;20198;-77
2022/05/17 07:23:58;;;;;;;13.23;6.00;;;16.90;99.90;;;;;;2223810;64;20671;-77
2022/05/17 07:26:36;;;;;;;18.23;5.40;;;17.00;99.90;;;;;;2225141;64;20162;-75
2022/05/17 07:29:51;;;;;;;14.90;5.53;;;17.30;99.90;;;;;;2224255;64;20175;-75
2022/05/17 07:32:31;;;;;;;14.00;6.57;;;17.00;99.90;;;;;;2225339;64;20230;-75
2022/05/17 07:35:09;;;;;;;12.02;5.78;;;17.10;99.90;;;;;;2225967;64;20644;-76
2022/05/17 07:52:34;;;;;;;11.93;6.50;;;17.40;99.90;;;;;;2225239;64;20204;-76
2022/05/17 07:55:15;;;;;;;12.52;5.57;;;17.40;99.90;;;;;;2223689;64;20782;-76
2022/05/17 07:58:41;;;;;;;18.50;6.57;;;17.60;99.90;;;;;;2222756;64;20238;-77
2022/05/17 08:01:18;;;;;;;14.25;5.20;;;17.60;99.90;;;;;;2220827;64;20207;-78
2022/05/17 08:03:55;;;;;;;10.63;5.45;;;17.80;99.90;;;;;;2224459;64;20358;-77
2022/05/17 08:14:49;;;;;;;12.77;5.95;;;17.90;99.90;;;;;;2223459;64;20246;-79
2022/05/17 08:17:26;;;;;;;10.82;4.68;;;17.90;99.90;;;;;;2223024;64;20228;-77
2022/05/17 08:27:36;;;;;;;15.48;6.32;;;18.00;99.90;;;;;;2223582;64;20335;-78
2022/05/17 08:30:19;;;;;;;11.50;5.70;;;18.10;99.90;;;;;;2222747;64;20270;-77
2022/05/17 08:33:53;;;;;;;11.30;5.27;;;18.30;99.90;;;;;;2223916;64;20203;-77
2022/05/17 08:36:56;;;;;;;11.50;5.88;;;18.30;99.90;;;;;;2219976;64;20343;-77
2022/05/17 08:40:08;;;;;;;13.85;5.95;;;18.60;99.90;;;;;;2203742;64;20842;-78
2022/05/17 08:43:08;;;;;;;;;;;18.50;99.90;;;;;;2203605;64;20245;-78
2022/05/17 08:45:56;;;;;;;9.60;5.53;;;18.50;99.90;;;;;;2202960;64;20506;-75
2022/05/17 08:48:40;;;;;;;12.25;5.43;;;18.50;99.90;;;;;;2203890;64;20215;-78
2022/05/17 08:51:42;;;;;;;11.90;6.30;;;18.50;99.90;;;;;;2204144;64;23673;-78
2022/05/17 08:54:27;;;;;;;10.88;6.47;;;18.50;99.90;;;;;;2203682;64;20176;-78
2022/05/17 08:57:30;;;;;;;10.98;5.80;;;18.60;99.90;;;;;;2204152;64;20185;-77
2022/05/17 09:00:23;;;;;;;16.85;5.97;;;18.60;99.90;;;;;;2204201;64;22692;-79
2022/05/17 09:18:47;;;;;;;9.18;5.07;;;19.30;99.20;;;;;;2220566;64;20200;-74
2022/05/17 09:25:52;;;;;;;10.38;5.60;;;19.40;98.90;;;;;;2221846;64;21647;-75
2022/05/17 09:28:42;;;;;;;12.15;5.75;;;19.60;98.40;;;;;;2221545;64;20274;-74
2022/05/17 09:35:20;;;;;;;10.10;5.32;;;19.90;97.90;;;;;;2221763;64;20196;-75
2022/05/17 09:38:02;;;;;;;12.77;5.93;;;20.00;97.60;;;;;;2221311;64;20175;-78
2022/05/17 09:40:45;;;;;;;12.00;4.82;;;20.10;97.20;;;;;;2221132;64;20191;-77
2022/05/17 09:43:52;;;;;;;9.00;4.88;;;20.20;96.20;;;;;;2221025;64;20224;-76
2022/05/17 09:53:18;;;;;;;6.55;3.92;;;20.30;94.60;;;;;;2221098;64;20212;-74
2022/05/17 09:56:06;;;;;;;7.70;3.80;;;20.30;93.90;;;;;;2221662;64;20861;-75
2022/05/17 09:58:49;;;;;;;7.82;3.60;;;20.40;93.20;;;;;;2220322;64;20199;-76
2022/05/17 10:04:51;;;;;;;10.20;3.58;;;20.50;92.10;;;;;;2219901;64;20219;-76
2022/05/17 10:07:30;;;;;;;9.25;4.10;;;20.70;92.40;;;;;;2221717;64;20183;-76
2022/05/17 10:10:32;;;;;;;7.50;2.97;;;20.90;91.00;;;;;;2219008;64;20331;-78
2022/05/17 10:13:18;;;;;;;5.15;3.42;;;21.00;90.00;;;;;;2221835;64;20187;-76
2022/05/17 10:16:00;;;;;;;6.90;3.50;;;21.10;90.30;;;;;;2221431;64;20212;-77
2022/05/17 10:18:53;;;;;;;9.05;3.53;;;21.20;89.90;;;;;;2221082;64;20212;-76
2022/05/17 10:22:03;;;;;;;10.70;3.08;;;21.50;88.90;;;;;;2220575;64;20190;-77
2022/05/17 10:24:56;;;;;;;8.70;3.33;;;21.70;87.50;;;;;;2212660;64;20677;-77
2022/05/17 10:31:40;;;;;;;5.82;3.28;;;21.90;84.50;;;;;;2220076;64;20219;-77
2022/05/17 10:34:46;;;;;;;9.13;4.22;;;22.00;85.10;;;;;;2221507;64;20235;-78
2022/05/17 11:00:32;;;;;;;6.03;3.00;;;25.30;77.50;;;;;;2221157;64;20175;-78
2022/05/17 11:03:21;;;;;;;8.68;2.72;;;26.30;69.80;;;;;;2220148;64;20211;-76
2022/05/17 11:06:00;;;;;;;7.25;2.80;;;27.00;67.00;;;;;;2219810;64;20179;-78
2022/05/17 11:09:13;;;;;;;8.32;2.90;;;27.40;66.30;;;;;;2221696;64;20227;-76
2022/05/17 11:12:06;;;;;;;5.38;2.60;;;27.90;64.30;;;;;;2221509;64;20220;-77
2022/05/17 11:26:39;;;;;;;7.90;2.30;;;30.90;58.10;;;;;;2210781;64;20521;-79
2022/05/17 11:29:52;;;;;;;7.50;2.45;;;31.70;56.30;;;;;;2212920;64;20218;-79
2022/05/17 11:36:55;;;;;;;7.47;2.50;;;32.10;50.80;;;;;;2211729;64;20816;-78
2022/05/17 11:39:47;;;;;;;6.47;2.40;;;32.50;49.20;;;;;;2212350;64;20184;-77
2022/05/17 12:08:44;;;;;;;3.50;2.20;;;36.80;40.70;;;;;;2212767;64;20196;-76
2022/05/17 12:12:10;;;;;;;5.63;2.47;;;37.10;39.50;;;;;;2213325;64;20355;-76
2022/05/17 12:15:11;;;;;;;4.38;1.98;;;37.50;41.00;;;;;;2215934;64;20204;-77
2022/05/17 12:18:07;;;;;;;4.90;2.30;;;38.10;40.80;;;;;;2216097;64;20391;-75
2022/05/17 12:52:58;;;;;;;4.22;2.50;;;38.70;38.30;;;;;;2222086;64;20220;-79
2022/05/17 12:55:36;;;;;;;5.22;1.88;;;38.40;37.40;;;;;;2221166;64;20231;-78
2022/05/17 13:02:58;;;;;;;5.13;2.15;;;38.30;36.10;;;;;;2220934;64;20224;-77
2022/05/17 13:05:46;;;;;;;5.65;1.83;;;37.90;36.30;;;;;;2221462;64;20180;-77
2022/05/17 13:08:24;;;;;;;5.45;2.00;;;37.40;36.10;;;;;;2222244;64;20403;-78
2022/05/17 13:11:13;;;;;;;4.63;1.90;;;37.90;37.00;;;;;;2221621;64;20208;-78
2022/05/17 13:14:10;;;;;;;3.63;1.65;;;39.20;37.30;;;;;;2221633;64;20195;-77
2022/05/17 13:16:46;;;;;;;;;;;40.70;36.40;;;;;;2218786;64;20211;-78
2022/05/17 13:19:25;;;;;;;6.22;2.17;;;42.00;36.70;;;;;;2220841;64;20115;-78
2022/05/17 13:22:02;;;;;;;4.13;1.77;;;41.50;34.30;;;;;;2221417;64;20253;-78
2022/05/17 13:24:45;;;;;;;6.90;1.92;;;40.00;33.60;;;;;;2222043;64;20357;-78
2022/05/17 13:27:42;;;;;;;2.95;1.50;;;38.60;34.40;;;;;;2222225;64;20186;-77
2022/05/17 13:30:40;;;;;;;4.18;1.95;;;38.00;34.60;;;;;;2220562;64;20682;-81
2022/05/17 13:33:35;;;;;;;5.63;2.03;;;38.70;34.90;;;;;;2221506;64;20196;-79
2022/05/17 13:36:41;;;;;;;5.75;1.90;;;39.50;34.50;;;;;;2222215;64;20271;-77
2022/05/17 13:39:27;;;;;;;3.00;1.50;;;38.00;33.80;;;;;;2221990;64;20188;-75
2022/05/17 13:42:04;;;;;;;4.78;1.95;;;36.70;35.90;;;;;;2222346;64;20222;-77
2022/05/17 14:16:36;;;;;;;4.45;1.83;;;36.30;38.80;;;;;;2218958;64;20401;-79
2022/05/17 14:19:21;;;;;;;4.68;1.48;;;37.80;36.50;;;;;;2215123;64;20191;-79
2022/05/17 14:22:07;;;;;;;7.30;2.35;;;37.10;35.90;;;;;;2220218;64;20726;-78
2022/05/17 14:24:43;;;;;;;5.72;1.80;;;36.10;36.60;;;;;;2220781;64;20228;-78
2022/05/17 14:27:21;;;;;;;5.40;1.95;;;36.10;38.00;;;;;;2220746;64;20192;-77
2022/05/17 14:30:01;;;;;;;4.15;1.83;;;37.50;37.30;;;;;;2218888;64;20180;-77
2022/05/17 14:36:41;;;;;;;4.53;2.28;;;40.30;35.90;;;;;;2220282;64;20216;-77
2022/05/17 14:39:21;;;;;;;3.80;2.08;;;41.10;35.00;;;;;;2221632;64;20272;-79
2022/05/17 14:42:01;;;;;;;5.25;2.10;;;41.80;33.40;;;;;;2218597;64;20356;-79
2022/05/17 14:44:38;;;;;;;4.88;1.98;;;42.10;33.20;;;;;;2219716;64;20321;-76
2022/05/17 14:47:26;;;;;;;3.78;1.80;;;42.50;32.80;;;;;;2219817;64;20745;-78
2022/05/17 14:50:06;;;;;;;3.78;2.17;;;41.80;32.50;;;;;;2220056;64;20647;-77
2022/05/17 14:52:44;;;;;;;3.50;2.03;;;39.80;32.80;;;;;;2217512;64;20194;-77
2022/05/17 14:55:26;;;;;;;3.30;1.75;;;38.00;34.00;;;;;;2221734;64;20945;-79
2022/05/17 14:58:06;;;;;;;4.38;1.65;;;36.80;35.70;;;;;;2220771;64;20164;-79
2022/05/17 15:00:42;;;;;;;3.17;2.00;;;37.10;36.00;;;;;;2222510;64;20174;-80
2022/05/17 15:03:36;;;;;;;5.28;1.90;;;37.50;35.80;;;;;;2223388;64;20553;-80
2022/05/17 15:06:18;;;;;;;4.68;1.95;;;38.30;36.00;;;;;;2225442;64;20197;-84
2022/05/17 15:12:39;;;;;;;3.53;1.90;;;40.00;34.40;;;;;;2228265;64;20231;-84
2022/05/17 15:15:22;;;;;;;3.75;2.03;;;39.00;34.30;;;;;;2227137;64;20303;-83
2022/05/17 15:18:09;;;;;;;2.72;1.50;;;39.20;34.60;;;;;;2229358;64;20207;-84
2022/05/17 15:20:52;;;;;;;3.42;1.85;;;40.00;34.10;;;;;;2225513;64;20167;-84
2022/05/17 15:23:36;;;;;;;6.53;2.58;;;40.30;34.20;;;;;;2222707;64;20688;-83
2022/05/17 15:26:15;;;;;;;8.68;2.95;;;39.40;35.60;;;;;;2222531;64;20185;-78
2022/05/17 15:33:52;;;;;;;5.65;2.47;;;36.80;37.90;;;;;;2222544;64;20382;-78
2022/05/17 15:36:22;;;;;;;4.53;2.38;;;35.40;39.30;;;;;;2222049;64;20275;-79
2022/05/17 15:43:22;;;;;;;7.28;3.08;;;34.80;40.60;;;;;;2221257;64;20252;-80
2022/05/17 15:45:57;;;;;;;7.68;2.60;;;36.00;40.20;;;;;;2222353;64;20291;-81
2022/05/17 15:56:29;;;;;;;8.75;3.42;;;39.00;38.00;;;;;;2220438;64;20254;-82
2022/05/17 15:59:06;;;;;;;6.10;3.28;;;39.60;37.00;;;;;;2221531;64;20197;-82
2022/05/17 16:01:49;;;;;;;6.10;2.92;;;39.50;36.10;;;;;;2221507;64;20172;-80
2022/05/17 16:22:34;;;;;;;8.05;3.25;;;36.40;38.80;;;;;;2213779;64;20300;-78
2022/05/17 16:25:14;;;;;;;5.15;2.38;;;36.50;38.40;;;;;;2213557;64;20724;-88
2022/05/17 16:27:53;;;;;;;5.43;2.13;;;37.00;38.20;;;;;;2215816;64;20226;-88
2022/05/17 16:30:35;;;;;;;8.15;2.30;;;37.60;37.80;;;;;;2214779;64;20196;-86
2022/05/17 16:33:18;;;;;;;5.97;2.20;;;38.10;37.40;;;;;;2219213;64;20192;-87
2022/05/17 16:35:54;;;;;;;6.88;2.92;;;38.50;37.00;;;;;;2214432;64;20188;-84
2022/05/17 16:38:34;;;;;;;4.25;2.03;;;38.70;36.20;;;;;;2214974;64;20220;-84
2022/05/17 16:41:20;;;;;;;5.78;2.35;;;38.50;36.20;;;;;;2215318;64;20319;-85
2022/05/17 16:43:58;;;;;;;5.55;2.17;;;38.80;36.70;;;;;;2214762;64;20358;-87
2022/05/17 16:46:41;;;;;;;4.53;2.63;;;39.30;35.80;;;;;;2214382;64;20206;-87
2022/05/17 16:49:23;;;;;;;4.00;2.17;;;39.60;35.30;;;;;;2214684;64;20705;-86
2022/05/17 16:52:00;;;;;;;4.40;2.28;;;39.70;35.00;;;;;;2215923;64;20188;-84
2022/05/17 16:54:39;;;;;;;6.28;2.00;;;39.70;34.90;;;;;;2214764;64;20214;-88
2022/05/17 16:57:18;;;;;;;3.95;2.40;;;38.80;34.90;;;;;;2213494;64;20203;-85
2022/05/17 16:59:57;;;;;;;3.17;1.65;;;37.80;35.80;;;;;;2215148;64;20355;-86
2022/05/17 17:02:36;;;;;;;3.80;2.08;;;37.00;36.30;;;;;;2215351;64;20268;-84
2022/05/17 17:05:24;;;;;;;6.50;2.60;;;36.20;36.90;;;;;;2214188;64;20655;-86
2022/05/17 17:08:00;;;;;;;4.43;2.35;;;35.40;38.20;;;;;;2215310;64;20184;-86
2022/05/17 17:10:49;;;;;;;9.10;2.70;;;34.80;38.50;;;;;;2216971;64;20587;-87
